createdAt,value
2022-11-16T00:04:16.130Z,24.02
2022-11-16T00:09:24.305Z,21.05
2022-11-16T00:14:29.923Z,16.20
2022-11-16T00:19:32.606Z,15.00
2022-11-16T00:24:35.497Z,17.83
2022-11-16T00:29:39.120Z,11.48
2022-11-16T00:34:41.518Z,11.02
2022-11-16T00:39:43.901Z,11.33
2022-11-16T00:44:46.289Z,11.70
2022-11-16T00:49:48.678Z,10.77
2022-11-16T00:54:51.018Z,9.55
2022-11-16T00:59:53.416Z,9.23
2022-11-16T01:04:55.837Z,9.63
2022-11-16T01:09:58.165Z,10.23
2022-11-16T01:15:00.822Z,10.23
2022-11-16T01:20:05.971Z,8.00
2022-11-16T01:25:10.269Z,9.25
2022-11-16T01:30:14.689Z,9.77
2022-11-16T01:35:18.451Z,13.10
2022-11-16T01:40:20.832Z,11.93
2022-11-16T01:45:38.462Z,10.38
2022-11-16T01:50:41.259Z,4.50
2022-11-16T01:55:44.797Z,8.60
2022-11-16T02:00:49.208Z,7.55
2022-11-16T02:06:03.778Z,9.53
2022-11-16T02:11:27.440Z,10.90
2022-11-16T02:16:51.847Z,9.23
2022-11-16T02:22:10.647Z,9.73
2022-11-16T02:27:29.254Z,6.38
2022-11-16T02:32:33.726Z,9.27
2022-11-16T02:37:39.039Z,5.22
2022-11-16T02:42:45.732Z,6.05
2022-11-16T02:47:50.168Z,7.53
2022-11-16T02:52:52.617Z,10.20
2022-11-16T02:58:03.406Z,8.87
2022-11-16T03:03:22.509Z,8.90
2022-11-16T03:09:10.075Z,9.95
2022-11-16T03:14:17.017Z,8.20
2022-11-16T03:19:46.443Z,7.45
2022-11-16T03:24:48.843Z,10.27
2022-11-16T03:30:05.663Z,9.77
2022-11-16T03:35:12.118Z,11.00
2022-11-16T03:40:17.410Z,10.03
2022-11-16T03:45:20.324Z,9.75
2022-11-16T03:50:22.754Z,9.57
2022-11-16T03:55:25.200Z,10.45
2022-11-16T04:00:27.800Z,9.82
2022-11-16T04:05:48.579Z,10.60
2022-11-16T04:11:09.660Z,9.98
2022-11-16T04:16:30.723Z,4.40
2022-11-16T04:21:55.328Z,8.32
2022-11-16T04:27:22.353Z,9.60
2022-11-16T04:32:43.385Z,8.70
2022-11-16T04:37:48.914Z,9.23
2022-11-16T04:42:52.385Z,7.10
2022-11-16T04:47:54.975Z,8.30
2022-11-16T04:52:57.533Z,6.28
2022-11-16T04:58:00.089Z,8.43
2022-11-16T05:03:04.859Z,7.25
2022-11-16T05:08:09.106Z,7.30
2022-11-16T05:13:11.828Z,4.55
2022-11-16T05:18:14.274Z,8.65
2022-11-16T05:23:39.916Z,8.40
2022-11-16T05:28:42.314Z,9.02
2022-11-16T05:33:45.142Z,6.57
2022-11-16T05:38:47.589Z,10.95
2022-11-16T05:43:50.004Z,10.10
2022-11-16T05:48:52.430Z,7.63
2022-11-16T05:53:54.867Z,9.15
2022-11-16T05:58:58.383Z,9.20
2022-11-16T06:04:02.874Z,6.72
2022-11-16T06:09:05.518Z,10.00
2022-11-16T06:14:07.999Z,12.43
2022-11-16T06:19:10.439Z,14.07
2022-11-16T06:24:12.984Z,10.87
2022-11-16T06:29:15.650Z,8.38
2022-11-16T06:34:18.101Z,7.65
2022-11-16T06:39:20.451Z,10.33
2022-11-16T06:44:25.406Z,9.98
2022-11-16T06:49:27.853Z,10.73
2022-11-16T06:54:36.018Z,11.68
2022-11-16T06:59:38.359Z,12.57
2022-11-16T07:04:40.718Z,14.43
2022-11-16T07:09:44.658Z,14.73
2022-11-16T07:14:47.035Z,16.13
2022-11-16T07:19:49.412Z,19.95
2022-11-16T07:24:51.821Z,31.90
2022-11-16T07:29:54.251Z,21.53
2022-11-16T07:34:59.262Z,19.27
2022-11-16T07:40:02.161Z,22.17
2022-11-16T07:45:04.923Z,20.90
2022-11-16T07:50:08.020Z,19.42
2022-11-16T07:55:10.456Z,18.77
2022-11-16T08:00:13.284Z,19.73
2022-11-16T08:05:15.816Z,16.53
2022-11-16T08:10:18.607Z,16.70
2022-11-16T08:15:21.350Z,15.07
2022-11-16T08:20:24.073Z,14.60
2022-11-16T08:25:26.636Z,15.07
2022-11-16T08:30:29.161Z,16.67
2022-11-16T08:35:31.665Z,15.85
2022-11-16T08:40:35.490Z,15.75
2022-11-16T08:45:38.313Z,16.30
2022-11-16T08:51:10.019Z,17.15
2022-11-16T08:56:13.339Z,18.17
2022-11-16T09:01:20.387Z,14.40
2022-11-16T09:06:23.988Z,16.95
2022-11-16T09:11:26.981Z,15.30
2022-11-16T09:16:29.586Z,15.45
2022-11-16T09:21:32.038Z,14.23
2022-11-16T09:26:34.534Z,13.57
2022-11-16T09:31:37.494Z,12.52
2022-11-16T09:36:39.983Z,13.60
2022-11-16T09:42:02.563Z,11.75
2022-11-16T09:47:06.251Z,13.53
2022-11-16T09:57:55.326Z,13.13
2022-11-16T10:03:05.141Z,14.00
2022-11-16T10:08:14.090Z,14.02
2022-11-16T10:13:47.328Z,14.57
2022-11-16T10:19:28.957Z,14.50
2022-11-16T10:24:40.833Z,16.08
2022-11-16T10:29:43.276Z,15.30
2022-11-16T10:34:51.019Z,14.43
2022-11-16T10:39:53.663Z,14.43
2022-11-16T10:45:21.345Z,19.40
2022-11-16T10:50:47.390Z,17.23
2022-11-16T10:56:13.738Z,12.30
2022-11-16T11:01:38.191Z,23.88
2022-11-16T11:06:40.916Z,16.70
2022-11-16T11:12:01.909Z,38.40
2022-11-16T11:17:17.126Z,22.02
2022-11-16T11:22:19.570Z,18.87
2022-11-16T11:27:24.101Z,27.80
2022-11-16T11:32:39.394Z,15.93
2022-11-16T11:37:42.362Z,11.93
2022-11-16T11:43:03.402Z,18.33
2022-11-16T11:48:23.650Z,20.33
2022-11-16T11:53:56.526Z,19.95
2022-11-16T11:58:59.036Z,12.93
2022-11-16T12:04:37.823Z,12.55
2022-11-16T12:09:51.853Z,11.55
2022-11-16T12:15:12.764Z,12.03
2022-11-16T12:20:37.019Z,21.50
2022-11-16T12:25:48.657Z,13.27
2022-11-16T12:31:20.839Z,19.47
2022-11-16T12:36:40.864Z,18.98
2022-11-16T12:42:12.547Z,12.80
2022-11-16T12:47:40.896Z,11.93
2022-11-16T12:52:50.029Z,11.48
2022-11-16T12:58:13.496Z,13.10
2022-11-16T13:03:30.662Z,13.10
2022-11-16T13:08:41.969Z,12.15
2022-11-16T13:13:51.502Z,12.20
2022-11-16T13:19:05.531Z,13.63
2022-11-16T13:24:13.789Z,15.83
2022-11-16T13:29:22.199Z,14.57
2022-11-16T13:34:29.916Z,14.98
2022-11-16T13:39:50.910Z,15.33
2022-11-16T13:44:54.171Z,20.48
2022-11-16T13:49:59.650Z,22.23
2022-11-16T13:55:15.000Z,20.85
2022-11-16T14:00:24.863Z,22.77
2022-11-16T14:05:41.482Z,19.80
2022-11-16T14:10:52.551Z,20.63
2022-11-16T14:16:15.284Z,17.87
2022-11-16T14:21:20.520Z,20.40
2022-11-16T14:26:38.000Z,21.58
2022-11-16T14:31:54.744Z,26.63
2022-11-16T14:36:58.753Z,29.80
2022-11-16T14:42:16.364Z,40.03
2022-11-16T14:47:26.084Z,32.92
2022-11-16T14:52:45.732Z,29.25
2022-11-16T14:57:48.383Z,36.47
2022-11-16T15:02:57.678Z,23.10
2022-11-16T15:08:14.502Z,23.57
2022-11-16T15:13:24.091Z,25.65
2022-11-16T15:18:26.512Z,27.67
2022-11-16T15:23:30.799Z,30.87
2022-11-16T15:28:34.282Z,26.65
2022-11-16T15:33:40.715Z,27.87
2022-11-16T15:38:43.255Z,32.92
2022-11-16T15:44:12.146Z,32.15
2022-11-16T15:49:31.855Z,34.27
2022-11-16T15:54:55.550Z,34.85
2022-11-16T15:59:58.500Z,32.03
2022-11-16T16:05:00.957Z,22.90
2022-11-16T16:10:38.662Z,15.60
2022-11-16T16:15:41.203Z,10.47
2022-11-16T16:20:47.989Z,11.48
2022-11-16T16:25:50.904Z,10.03
2022-11-16T16:30:53.419Z,9.32
2022-11-16T16:35:56.136Z,8.32
2022-11-16T16:41:03.351Z,6.43
2022-11-16T16:46:07.185Z,9.30
2022-11-16T16:51:12.205Z,15.10
2022-11-16T16:56:16.287Z,13.73
2022-11-16T17:01:18.868Z,13.30
2022-11-16T17:06:21.736Z,13.30
2022-11-16T17:11:24.439Z,16.63
2022-11-16T17:16:26.966Z,21.63
2022-11-16T17:21:29.450Z,21.30
2022-11-16T17:26:31.874Z,22.08
2022-11-16T17:31:34.364Z,17.63
2022-11-16T17:36:36.900Z,16.60
2022-11-16T17:41:39.663Z,13.37
2022-11-16T17:46:42.103Z,14.80
2022-11-16T17:51:44.676Z,13.38
2022-11-16T17:56:47.115Z,8.47
2022-11-16T18:01:51.008Z,11.93
2022-11-16T18:06:53.594Z,8.90
2022-11-16T18:11:56.143Z,10.07
2022-11-16T18:16:58.803Z,11.35
2022-11-16T18:22:01.292Z,10.03
2022-11-16T18:27:03.819Z,9.07
2022-11-16T18:32:06.354Z,9.17
2022-11-16T18:37:09.804Z,11.30
2022-11-16T18:42:12.913Z,10.98
2022-11-16T18:47:15.363Z,8.97
2022-11-16T18:52:17.835Z,10.70
2022-11-16T18:57:20.244Z,11.03
2022-11-16T19:02:22.698Z,11.52
2022-11-16T19:07:26.005Z,12.73
2022-11-16T19:12:28.568Z,10.00
2022-11-16T19:17:31.008Z,8.18
2022-11-16T19:22:36.964Z,7.67
2022-11-16T19:27:42.954Z,8.68
2022-11-16T19:32:51.655Z,7.72
2022-11-16T19:37:54.641Z,8.63
2022-11-16T19:42:57.526Z,8.93
2022-11-16T19:48:00.530Z,8.67
2022-11-16T19:53:03.528Z,8.63
2022-11-16T19:58:06.650Z,9.65
2022-11-16T20:03:09.564Z,7.50
2022-11-16T20:08:12.529Z,6.07
2022-11-16T20:13:20.223Z,6.50
2022-11-16T20:18:26.012Z,6.88
2022-11-16T20:23:35.848Z,6.10
2022-11-16T20:28:41.061Z,6.07
2022-11-16T20:33:49.970Z,6.80
2022-11-16T20:38:53.066Z,7.93
2022-11-16T20:43:57.419Z,8.15
2022-11-16T20:49:01.802Z,7.65
2022-11-16T20:54:04.313Z,5.60
2022-11-16T20:59:06.787Z,7.45
2022-11-16T21:04:10.904Z,7.40
2022-11-16T21:09:15.617Z,7.28
2022-11-16T21:14:18.651Z,7.55
2022-11-16T21:19:21.376Z,7.10
2022-11-16T21:24:24.845Z,7.93
2022-11-16T21:29:28.194Z,9.80
2022-11-16T21:34:34.639Z,7.90
2022-11-16T21:39:39.792Z,9.10
2022-11-16T21:44:42.250Z,8.47
2022-11-16T21:50:16.434Z,8.00
2022-11-16T21:55:11.884Z,8.87
2022-11-16T22:00:15.127Z,9.52
2022-11-16T22:05:36.478Z,9.43
2022-11-16T22:10:39.013Z,9.63
2022-11-16T22:15:41.514Z,8.80
2022-11-16T22:20:48.014Z,7.97
2022-11-16T22:25:50.481Z,9.85
2022-11-16T22:31:07.212Z,10.00
2022-11-16T22:36:10.878Z,9.43
2022-11-16T22:41:13.318Z,10.15
2022-11-16T22:46:15.781Z,10.67
2022-11-16T22:51:21.256Z,13.10
2022-11-16T22:56:24.464Z,15.27
2022-11-16T23:01:27.372Z,13.40
2022-11-16T23:06:29.974Z,11.80
2022-11-16T23:11:50.992Z,11.60
2022-11-16T23:16:53.639Z,10.05
2022-11-16T23:22:15.105Z,11.20
2022-11-16T23:27:43.597Z,11.67
2022-11-16T23:32:46.136Z,12.15
2022-11-16T23:37:56.600Z,12.47
2022-11-16T23:43:18.007Z,10.23
2022-11-16T23:48:20.453Z,9.43
2022-11-16T23:53:23.013Z,10.27
2022-11-16T23:58:25.426Z,8.18
